首页
METAR-TAF:

METAR-TAF

机场 :

Linton-on-Ouse, 英格兰

纬度: 54-03N, 经度: 001-15W, 海拔: 16米

当前天气观测

该预报发布于30分钟前的13:50 UTC
风速13节,风向西
温度 6°C
湿度 65%
气压 1012 hPa
能见度10公里或以上

METAR: EGXU 231350Z AUTO 27013KT 9999 SCT050/// 06/00 Q1012 RERA

时间: 14:20 (14:20 UTC)


TAF: 丢失

超过4000个机场的气象观测和天气预报(METAR&TAF报告)。

可查询的气象台以黄色和红色小点在地图上表示。

将鼠标移到小点上方,可查看气象台名称。

然后点击查看天气观测和预报。

如需切换地图:点击带黑十字的绿色按钮放大地图;点击带横线的绿色按钮缩小地图;或者点击绿色箭头查看邻近地区的地图。


METAR-TAF: